sensor_id;sensor_type;location;lat;lon;timestamp;P1;durP1;ratioP1;P2;durP2;ratioP2
7150;SDS011;3617;48.836;9.172;2023-03-21T00:01:38;6.20;;;4.37;;
7150;SDS011;3617;48.836;9.172;2023-03-21T00:04:04;7.67;;;4.70;;
7150;SDS011;3617;48.836;9.172;2023-03-21T00:06:30;7.80;;;4.60;;
7150;SDS011;3617;48.836;9.172;2023-03-21T00:08:56;8.03;;;4.60;;
7150;SDS011;3617;48.836;9.172;2023-03-21T00:11:22;6.17;;;4.27;;
7150;SDS011;3617;48.836;9.172;2023-03-21T00:13:48;5.93;;;4.17;;
7150;SDS011;3617;48.836;9.172;2023-03-21T00:16:15;7.20;;;4.70;;
7150;SDS011;3617;48.836;9.172;2023-03-21T00:18:42;5.67;;;4.47;;
7150;SDS011;3617;48.836;9.172;2023-03-21T00:21:10;7.77;;;4.90;;
7150;SDS011;3617;48.836;9.172;2023-03-21T00:23:36;6.60;;;4.87;;
7150;SDS011;3617;48.836;9.172;2023-03-21T00:26:03;5.53;;;4.03;;
7150;SDS011;3617;48.836;9.172;2023-03-21T00:28:29;7.07;;;4.30;;
7150;SDS011;3617;48.836;9.172;2023-03-21T00:30:57;5.87;;;4.57;;
7150;SDS011;3617;48.836;9.172;2023-03-21T00:33:23;6.50;;;4.97;;
7150;SDS011;3617;48.836;9.172;2023-03-21T00:35:50;9.20;;;5.23;;
7150;SDS011;3617;48.836;9.172;2023-03-21T00:38:17;9.67;;;5.37;;
7150;SDS011;3617;48.836;9.172;2023-03-21T00:40:43;9.37;;;4.60;;
7150;SDS011;3617;48.836;9.172;2023-03-21T00:43:09;9.10;;;4.87;;
7150;SDS011;3617;48.836;9.172;2023-03-21T00:45:36;7.70;;;4.83;;
7150;SDS011;3617;48.836;9.172;2023-03-21T00:48:02;11.73;;;5.60;;
7150;SDS011;3617;48.836;9.172;2023-03-21T00:50:29;8.50;;;4.80;;
7150;SDS011;3617;48.836;9.172;2023-03-21T00:52:56;7.33;;;4.23;;
7150;SDS011;3617;48.836;9.172;2023-03-21T00:55:22;7.13;;;4.70;;
7150;SDS011;3617;48.836;9.172;2023-03-21T00:57:48;7.03;;;4.60;;
7150;SDS011;3617;48.836;9.172;2023-03-21T01:00:14;6.63;;;4.23;;
7150;SDS011;3617;48.836;9.172;2023-03-21T01:02:42;5.93;;;4.10;;
7150;SDS011;3617;48.836;9.172;2023-03-21T01:05:24;7.37;;;4.40;;
7150;SDS011;3617;48.836;9.172;2023-03-21T01:08:10;5.87;;;4.17;;
7150;SDS011;3617;48.836;9.172;2023-03-21T01:10:37;7.60;;;4.07;;
7150;SDS011;3617;48.836;9.172;2023-03-21T01:13:04;7.93;;;4.50;;
7150;SDS011;3617;48.836;9.172;2023-03-21T01:15:30;7.90;;;4.67;;
7150;SDS011;3617;48.836;9.172;2023-03-21T01:17:56;10.37;;;4.10;;
7150;SDS011;3617;48.836;9.172;2023-03-21T01:20:22;6.93;;;4.63;;
7150;SDS011;3617;48.836;9.172;2023-03-21T01:22:48;5.10;;;4.17;;
7150;SDS011;3617;48.836;9.172;2023-03-21T01:25:14;6.30;;;4.50;;
7150;SDS011;3617;48.836;9.172;2023-03-21T01:27:40;5.90;;;4.10;;
7150;SDS011;3617;48.836;9.172;2023-03-21T01:30:06;6.47;;;4.30;;
7150;SDS011;3617;48.836;9.172;2023-03-21T01:32:32;8.73;;;4.83;;
7150;SDS011;3617;48.836;9.172;2023-03-21T01:34:58;8.50;;;4.80;;
7150;SDS011;3617;48.836;9.172;2023-03-21T01:37:24;7.87;;;4.70;;
7150;SDS011;3617;48.836;9.172;2023-03-21T01:39:51;6.53;;;4.67;;
7150;SDS011;3617;48.836;9.172;2023-03-21T01:42:17;9.23;;;5.03;;
7150;SDS011;3617;48.836;9.172;2023-03-21T01:47:35;7.90;;;5.33;;
7150;SDS011;3617;48.836;9.172;2023-03-21T01:50:02;11.03;;;5.87;;
7150;SDS011;3617;48.836;9.172;2023-03-21T01:52:32;10.10;;;5.60;;
7150;SDS011;3617;48.836;9.172;2023-03-21T01:55:01;8.33;;;5.00;;
7150;SDS011;3617;48.836;9.172;2023-03-21T01:57:29;7.43;;;5.20;;
7150;SDS011;3617;48.836;9.172;2023-03-21T01:59:57;8.00;;;5.40;;
7150;SDS011;3617;48.836;9.172;2023-03-21T02:02:29;8.03;;;5.23;;
7150;SDS011;3617;48.836;9.172;2023-03-21T02:04:55;10.93;;;5.63;;
7150;SDS011;3617;48.836;9.172;2023-03-21T02:07:24;8.20;;;4.90;;
7150;SDS011;3617;48.836;9.172;2023-03-21T02:09:52;6.57;;;4.70;;
7150;SDS011;3617;48.836;9.172;2023-03-21T02:12:19;12.77;;;6.20;;
7150;SDS011;3617;48.836;9.172;2023-03-21T02:14:46;9.87;;;4.90;;
7150;SDS011;3617;48.836;9.172;2023-03-21T02:24:56;8.87;;;5.07;;
7150;SDS011;3617;48.836;9.172;2023-03-21T02:27:25;8.93;;;5.10;;
7150;SDS011;3617;48.836;9.172;2023-03-21T02:45:20;9.97;;;5.20;;
7150;SDS011;3617;48.836;9.172;2023-03-21T02:47:48;7.77;;;5.63;;
7150;SDS011;3617;48.836;9.172;2023-03-21T02:50:18;6.17;;;4.90;;
7150;SDS011;3617;48.836;9.172;2023-03-21T02:52:47;8.20;;;5.63;;
7150;SDS011;3617;48.836;9.172;2023-03-21T02:55:24;11.10;;;5.53;;
7150;SDS011;3617;48.836;9.172;2023-03-21T02:57:51;11.13;;;5.90;;
7150;SDS011;3617;48.836;9.172;2023-03-21T03:00:19;7.97;;;5.60;;
7150;SDS011;3617;48.836;9.172;2023-03-21T03:02:47;8.27;;;5.87;;
7150;SDS011;3617;48.836;9.172;2023-03-21T03:05:15;6.70;;;5.13;;
7150;SDS011;3617;48.836;9.172;2023-03-21T03:07:52;11.63;;;5.63;;
7150;SDS011;3617;48.836;9.172;2023-03-21T03:12:58;8.13;;;5.67;;
7150;SDS011;3617;48.836;9.172;2023-03-21T03:15:40;7.40;;;5.20;;
7150;SDS011;3617;48.836;9.172;2023-03-21T03:23:20;7.27;;;4.93;;
7150;SDS011;3617;48.836;9.172;2023-03-21T03:25:51;7.87;;;5.03;;
7150;SDS011;3617;48.836;9.172;2023-03-21T03:28:22;7.93;;;5.20;;
7150;SDS011;3617;48.836;9.172;2023-03-21T03:30:49;8.20;;;5.30;;
7150;SDS011;3617;48.836;9.172;2023-03-21T03:33:16;8.33;;;5.30;;
7150;SDS011;3617;48.836;9.172;2023-03-21T03:35:47;10.83;;;5.20;;
7150;SDS011;3617;48.836;9.172;2023-03-21T03:38:14;7.53;;;4.97;;
7150;SDS011;3617;48.836;9.172;2023-03-21T03:40:45;8.17;;;5.13;;
7150;SDS011;3617;48.836;9.172;2023-03-21T03:43:15;8.27;;;5.50;;
7150;SDS011;3617;48.836;9.172;2023-03-21T03:45:45;7.70;;;5.67;;
7150;SDS011;3617;48.836;9.172;2023-03-21T03:50:51;13.33;;;6.40;;
7150;SDS011;3617;48.836;9.172;2023-03-21T03:53:26;9.50;;;6.63;;
7150;SDS011;3617;48.836;9.172;2023-03-21T03:55:54;8.63;;;6.37;;
7150;SDS011;3617;48.836;9.172;2023-03-21T03:58:22;10.53;;;7.43;;
7150;SDS011;3617;48.836;9.172;2023-03-21T04:00:48;13.90;;;8.47;;
7150;SDS011;3617;48.836;9.172;2023-03-21T04:03:14;13.00;;;8.20;;
7150;SDS011;3617;48.836;9.172;2023-03-21T04:05:40;13.37;;;9.40;;
7150;SDS011;3617;48.836;9.172;2023-03-21T04:08:10;11.53;;;8.30;;
7150;SDS011;3617;48.836;9.172;2023-03-21T04:10:36;14.30;;;7.57;;
7150;SDS011;3617;48.836;9.172;2023-03-21T04:13:02;9.57;;;6.07;;
7150;SDS011;3617;48.836;9.172;2023-03-21T04:15:28;9.93;;;6.20;;
7150;SDS011;3617;48.836;9.172;2023-03-21T04:17:54;8.20;;;4.93;;
7150;SDS011;3617;48.836;9.172;2023-03-21T04:20:21;8.73;;;5.30;;
7150;SDS011;3617;48.836;9.172;2023-03-21T04:22:47;6.93;;;4.90;;
7150;SDS011;3617;48.836;9.172;2023-03-21T04:25:13;6.00;;;4.73;;
7150;SDS011;3617;48.836;9.172;2023-03-21T04:27:39;13.73;;;8.73;;
7150;SDS011;3617;48.836;9.172;2023-03-21T04:30:05;21.40;;;13.70;;
7150;SDS011;3617;48.836;9.172;2023-03-21T04:32:32;13.27;;;9.53;;
7150;SDS011;3617;48.836;9.172;2023-03-21T04:35:03;11.97;;;7.90;;
7150;SDS011;3617;48.836;9.172;2023-03-21T04:37:29;10.17;;;6.77;;
7150;SDS011;3617;48.836;9.172;2023-03-21T04:39:57;8.80;;;5.87;;
7150;SDS011;3617;48.836;9.172;2023-03-21T04:42:23;7.50;;;5.00;;
7150;SDS011;3617;48.836;9.172;2023-03-21T04:44:49;8.40;;;5.10;;
7150;SDS011;3617;48.836;9.172;2023-03-21T04:47:15;8.97;;;6.07;;
7150;SDS011;3617;48.836;9.172;2023-03-21T04:49:44;9.80;;;6.33;;
7150;SDS011;3617;48.836;9.172;2023-03-21T04:52:12;8.53;;;6.03;;
7150;SDS011;3617;48.836;9.172;2023-03-21T04:54:38;8.53;;;6.27;;
7150;SDS011;3617;48.836;9.172;2023-03-21T04:57:04;7.37;;;5.17;;
7150;SDS011;3617;48.836;9.172;2023-03-21T04:59:30;8.20;;;4.90;;
7150;SDS011;3617;48.836;9.172;2023-03-21T05:01:56;7.23;;;5.00;;
7150;SDS011;3617;48.836;9.172;2023-03-21T05:04:22;8.60;;;5.40;;
7150;SDS011;3617;48.836;9.172;2023-03-21T05:06:49;9.73;;;4.87;;
7150;SDS011;3617;48.836;9.172;2023-03-21T05:09:15;7.10;;;4.80;;
7150;SDS011;3617;48.836;9.172;2023-03-21T05:11:41;8.43;;;5.17;;
7150;SDS011;3617;48.836;9.172;2023-03-21T05:14:08;10.37;;;5.90;;
7150;SDS011;3617;48.836;9.172;2023-03-21T05:16:34;7.87;;;5.50;;
7150;SDS011;3617;48.836;9.172;2023-03-21T05:19:02;9.87;;;6.73;;
7150;SDS011;3617;48.836;9.172;2023-03-21T05:21:29;13.00;;;8.47;;
7150;SDS011;3617;48.836;9.172;2023-03-21T05:23:58;13.50;;;8.17;;
7150;SDS011;3617;48.836;9.172;2023-03-21T05:26:27;12.07;;;7.63;;
7150;SDS011;3617;48.836;9.172;2023-03-21T05:28:53;9.07;;;7.17;;
7150;SDS011;3617;48.836;9.172;2023-03-21T05:31:19;11.80;;;8.00;;
7150;SDS011;3617;48.836;9.172;2023-03-21T05:33:46;11.13;;;7.80;;
7150;SDS011;3617;48.836;9.172;2023-03-21T05:36:12;11.20;;;7.53;;
7150;SDS011;3617;48.836;9.172;2023-03-21T05:38:39;11.57;;;7.23;;
7150;SDS011;3617;48.836;9.172;2023-03-21T05:41:11;13.17;;;7.37;;
7150;SDS011;3617;48.836;9.172;2023-03-21T05:43:37;9.97;;;7.20;;
7150;SDS011;3617;48.836;9.172;2023-03-21T05:46:03;11.20;;;7.10;;
7150;SDS011;3617;48.836;9.172;2023-03-21T05:48:29;12.23;;;7.00;;
7150;SDS011;3617;48.836;9.172;2023-03-21T05:50:55;12.43;;;7.20;;
7150;SDS011;3617;48.836;9.172;2023-03-21T05:53:21;11.57;;;7.03;;
7150;SDS011;3617;48.836;9.172;2023-03-21T05:55:47;11.27;;;6.40;;
7150;SDS011;3617;48.836;9.172;2023-03-21T05:58:13;8.37;;;5.53;;
7150;SDS011;3617;48.836;9.172;2023-03-21T06:00:39;9.20;;;5.73;;
7150;SDS011;3617;48.836;9.172;2023-03-21T06:03:05;8.10;;;6.20;;
7150;SDS011;3617;48.836;9.172;2023-03-21T06:05:31;8.37;;;5.70;;
7150;SDS011;3617;48.836;9.172;2023-03-21T06:07:57;9.73;;;5.20;;
7150;SDS011;3617;48.836;9.172;2023-03-21T06:10:23;8.83;;;5.60;;
7150;SDS011;3617;48.836;9.172;2023-03-21T06:12:49;6.53;;;5.13;;
7150;SDS011;3617;48.836;9.172;2023-03-21T06:15:15;9.40;;;5.43;;
7150;SDS011;3617;48.836;9.172;2023-03-21T06:17:41;7.43;;;5.23;;
7150;SDS011;3617;48.836;9.172;2023-03-21T06:20:07;13.10;;;5.50;;
7150;SDS011;3617;48.836;9.172;2023-03-21T06:22:34;7.73;;;5.30;;
7150;SDS011;3617;48.836;9.172;2023-03-21T06:25:01;7.17;;;5.80;;
7150;SDS011;3617;48.836;9.172;2023-03-21T06:27:27;10.00;;;5.60;;
7150;SDS011;3617;48.836;9.172;2023-03-21T06:29:53;9.40;;;5.47;;
7150;SDS011;3617;48.836;9.172;2023-03-21T06:32:19;8.73;;;5.37;;
7150;SDS011;3617;48.836;9.172;2023-03-21T06:34:45;6.43;;;4.83;;
7150;SDS011;3617;48.836;9.172;2023-03-21T06:37:11;8.80;;;5.23;;
7150;SDS011;3617;48.836;9.172;2023-03-21T06:39:37;6.77;;;4.90;;
7150;SDS011;3617;48.836;9.172;2023-03-21T06:42:03;10.20;;;5.73;;
7150;SDS011;3617;48.836;9.172;2023-03-21T06:44:29;8.17;;;4.63;;
7150;SDS011;3617;48.836;9.172;2023-03-21T06:46:55;13.00;;;5.03;;
7150;SDS011;3617;48.836;9.172;2023-03-21T06:49:21;8.97;;;4.40;;
7150;SDS011;3617;48.836;9.172;2023-03-21T06:51:47;5.07;;;3.90;;
7150;SDS011;3617;48.836;9.172;2023-03-21T06:54:13;4.90;;;3.63;;
7150;SDS011;3617;48.836;9.172;2023-03-21T06:56:41;5.17;;;3.07;;
7150;SDS011;3617;48.836;9.172;2023-03-21T06:59:07;5.53;;;3.93;;
7150;SDS011;3617;48.836;9.172;2023-03-21T07:01:34;5.30;;;3.30;;
7150;SDS011;3617;48.836;9.172;2023-03-21T07:04:00;3.20;;;2.87;;
7150;SDS011;3617;48.836;9.172;2023-03-21T07:06:26;6.47;;;2.77;;
7150;SDS011;3617;48.836;9.172;2023-03-21T07:08:53;12.10;;;3.37;;
7150;SDS011;3617;48.836;9.172;2023-03-21T07:11:20;4.33;;;3.03;;
7150;SDS011;3617;48.836;9.172;2023-03-21T07:13:46;4.90;;;2.70;;
7150;SDS011;3617;48.836;9.172;2023-03-21T07:16:12;9.50;;;2.90;;
7150;SDS011;3617;48.836;9.172;2023-03-21T07:18:39;8.53;;;4.13;;
7150;SDS011;3617;48.836;9.172;2023-03-21T07:21:05;5.17;;;3.30;;
7150;SDS011;3617;48.836;9.172;2023-03-21T07:23:31;6.70;;;4.43;;
7150;SDS011;3617;48.836;9.172;2023-03-21T07:25:58;3.90;;;3.20;;
7150;SDS011;3617;48.836;9.172;2023-03-21T07:28:25;6.47;;;2.93;;
7150;SDS011;3617;48.836;9.172;2023-03-21T07:30:55;5.50;;;3.07;;
7150;SDS011;3617;48.836;9.172;2023-03-21T07:33:21;4.80;;;3.20;;
7150;SDS011;3617;48.836;9.172;2023-03-21T07:35:49;4.37;;;2.90;;
7150;SDS011;3617;48.836;9.172;2023-03-21T07:38:15;5.30;;;3.20;;
7150;SDS011;3617;48.836;9.172;2023-03-21T07:40:41;7.37;;;3.57;;
7150;SDS011;3617;48.836;9.172;2023-03-21T07:43:07;4.90;;;3.30;;
7150;SDS011;3617;48.836;9.172;2023-03-21T07:45:33;5.10;;;3.03;;
7150;SDS011;3617;48.836;9.172;2023-03-21T07:48:00;4.95;;;2.85;;
7150;SDS011;3617;48.836;9.172;2023-03-21T07:50:26;4.57;;;2.65;;
7150;SDS011;3617;48.836;9.172;2023-03-21T07:52:52;4.07;;;3.05;;
7150;SDS011;3617;48.836;9.172;2023-03-21T07:55:18;5.38;;;2.72;;
7150;SDS011;3617;48.836;9.172;2023-03-21T07:57:44;12.45;;;3.20;;
7150;SDS011;3617;48.836;9.172;2023-03-21T08:00:11;3.40;;;2.75;;
7150;SDS011;3617;48.836;9.172;2023-03-21T08:02:46;3.97;;;2.92;;
7150;SDS011;3617;48.836;9.172;2023-03-21T08:05:12;3.72;;;2.72;;
7150;SDS011;3617;48.836;9.172;2023-03-21T08:07:38;4.10;;;2.63;;
7150;SDS011;3617;48.836;9.172;2023-03-21T08:10:04;6.22;;;3.13;;
7150;SDS011;3617;48.836;9.172;2023-03-21T08:12:30;4.80;;;2.80;;
7150;SDS011;3617;48.836;9.172;2023-03-21T08:14:56;4.10;;;2.53;;
7150;SDS011;3617;48.836;9.172;2023-03-21T08:17:22;5.55;;;2.70;;
7150;SDS011;3617;48.836;9.172;2023-03-21T08:19:48;4.85;;;2.53;;
7150;SDS011;3617;48.836;9.172;2023-03-21T08:22:14;4.72;;;2.60;;
7150;SDS011;3617;48.836;9.172;2023-03-21T08:24:41;4.05;;;2.90;;
7150;SDS011;3617;48.836;9.172;2023-03-21T08:27:07;5.95;;;3.30;;
7150;SDS011;3617;48.836;9.172;2023-03-21T08:29:33;3.60;;;2.70;;
7150;SDS011;3617;48.836;9.172;2023-03-21T08:32:04;3.35;;;2.40;;
7150;SDS011;3617;48.836;9.172;2023-03-21T08:34:30;3.00;;;2.60;;
7150;SDS011;3617;48.836;9.172;2023-03-21T08:36:56;4.22;;;2.40;;
7150;SDS011;3617;48.836;9.172;2023-03-21T08:39:22;6.05;;;2.80;;
7150;SDS011;3617;48.836;9.172;2023-03-21T08:41:49;4.95;;;3.20;;
7150;SDS011;3617;48.836;9.172;2023-03-21T08:44:16;5.22;;;3.00;;
7150;SDS011;3617;48.836;9.172;2023-03-21T08:46:42;5.63;;;3.08;;
7150;SDS011;3617;48.836;9.172;2023-03-21T08:49:08;4.75;;;2.70;;
7150;SDS011;3617;48.836;9.172;2023-03-21T08:51:34;5.97;;;3.05;;
7150;SDS011;3617;48.836;9.172;2023-03-21T08:54:01;3.80;;;2.50;;
7150;SDS011;3617;48.836;9.172;2023-03-21T08:56:27;3.75;;;2.53;;
7150;SDS011;3617;48.836;9.172;2023-03-21T08:58:53;3.72;;;2.78;;
7150;SDS011;3617;48.836;9.172;2023-03-21T09:01:20;4.10;;;2.47;;
7150;SDS011;3617;48.836;9.172;2023-03-21T09:03:46;4.15;;;2.45;;
7150;SDS011;3617;48.836;9.172;2023-03-21T09:06:12;5.75;;;2.70;;
7150;SDS011;3617;48.836;9.172;2023-03-21T09:08:39;3.80;;;2.38;;
7150;SDS011;3617;48.836;9.172;2023-03-21T09:11:06;3.72;;;2.28;;
7150;SDS011;3617;48.836;9.172;2023-03-21T09:13:32;3.92;;;2.10;;
7150;SDS011;3617;48.836;9.172;2023-03-21T09:15:58;4.05;;;2.00;;
7150;SDS011;3617;48.836;9.172;2023-03-21T09:18:25;3.50;;;2.35;;
7150;SDS011;3617;48.836;9.172;2023-03-21T09:21:11;4.97;;;2.55;;
7150;SDS011;3617;48.836;9.172;2023-03-21T09:23:38;3.08;;;2.10;;
7150;SDS011;3617;48.836;9.172;2023-03-21T09:26:05;2.58;;;2.17;;
7150;SDS011;3617;48.836;9.172;2023-03-21T09:28:31;3.15;;;2.60;;
7150;SDS011;3617;48.836;9.172;2023-03-21T09:30:58;4.70;;;2.58;;
7150;SDS011;3617;48.836;9.172;2023-03-21T09:33:26;4.15;;;2.17;;
7150;SDS011;3617;48.836;9.172;2023-03-21T09:35:53;3.50;;;1.83;;
7150;SDS011;3617;48.836;9.172;2023-03-21T09:38:19;2.83;;;2.10;;
7150;SDS011;3617;48.836;9.172;2023-03-21T09:51:01;4.85;;;2.33;;
7150;SDS011;3617;48.836;9.172;2023-03-21T09:53:34;2.22;;;1.80;;
7150;SDS011;3617;48.836;9.172;2023-03-21T09:56:00;4.97;;;2.28;;
7150;SDS011;3617;48.836;9.172;2023-03-21T10:01:14;3.33;;;2.00;;
7150;SDS011;3617;48.836;9.172;2023-03-21T10:03:51;3.58;;;1.73;;
7150;SDS011;3617;48.836;9.172;2023-03-21T10:06:18;2.63;;;2.10;;
7150;SDS011;3617;48.836;9.172;2023-03-21T10:08:45;1.85;;;1.60;;
7150;SDS011;3617;48.836;9.172;2023-03-21T10:11:14;3.20;;;1.45;;
7150;SDS011;3617;48.836;9.172;2023-03-21T10:13:52;3.08;;;1.65;;
7150;SDS011;3617;48.836;9.172;2023-03-21T10:16:22;2.80;;;1.70;;
7150;SDS011;3617;48.836;9.172;2023-03-21T10:18:50;3.00;;;1.80;;
7150;SDS011;3617;48.836;9.172;2023-03-21T10:21:23;5.28;;;1.52;;
7150;SDS011;3617;48.836;9.172;2023-03-21T10:23:50;3.00;;;1.48;;
7150;SDS011;3617;48.836;9.172;2023-03-21T10:26:18;3.05;;;1.80;;
7150;SDS011;3617;48.836;9.172;2023-03-21T10:28:45;2.97;;;1.40;;
7150;SDS011;3617;48.836;9.172;2023-03-21T10:31:13;2.58;;;1.63;;
7150;SDS011;3617;48.836;9.172;2023-03-21T10:33:43;2.13;;;1.50;;
7150;SDS011;3617;48.836;9.172;2023-03-21T10:36:11;1.48;;;1.20;;
7150;SDS011;3617;48.836;9.172;2023-03-21T10:38:43;3.13;;;1.73;;
7150;SDS011;3617;48.836;9.172;2023-03-21T10:41:10;2.67;;;1.80;;
7150;SDS011;3617;48.836;9.172;2023-03-21T10:43:37;4.45;;;1.70;;
7150;SDS011;3617;48.836;9.172;2023-03-21T10:46:10;2.38;;;1.70;;
7150;SDS011;3617;48.836;9.172;2023-03-21T10:48:37;2.20;;;1.40;;
7150;SDS011;3617;48.836;9.172;2023-03-21T10:51:04;3.58;;;1.52;;
7150;SDS011;3617;48.836;9.172;2023-03-21T10:53:32;3.97;;;1.70;;
7150;SDS011;3617;48.836;9.172;2023-03-21T10:55:59;1.90;;;1.52;;
7150;SDS011;3617;48.836;9.172;2023-03-21T10:58:29;1.83;;;1.40;;
7150;SDS011;3617;48.836;9.172;2023-03-21T11:00:58;2.55;;;1.40;;
7150;SDS011;3617;48.836;9.172;2023-03-21T11:06:07;4.55;;;2.58;;
7150;SDS011;3617;48.836;9.172;2023-03-21T11:08:40;4.68;;;2.75;;
7150;SDS011;3617;48.836;9.172;2023-03-21T11:11:09;2.55;;;2.20;;
7150;SDS011;3617;48.836;9.172;2023-03-21T11:13:40;2.63;;;2.35;;
7150;SDS011;3617;48.836;9.172;2023-03-21T11:16:11;4.28;;;2.60;;
7150;SDS011;3617;48.836;9.172;2023-03-21T11:18:44;3.85;;;2.55;;
7150;SDS011;3617;48.836;9.172;2023-03-21T11:21:13;4.15;;;2.40;;
7150;SDS011;3617;48.836;9.172;2023-03-21T11:23:41;6.40;;;2.47;;
7150;SDS011;3617;48.836;9.172;2023-03-21T11:26:11;3.65;;;2.17;;
7150;SDS011;3617;48.836;9.172;2023-03-21T11:28:41;3.17;;;2.30;;
7150;SDS011;3617;48.836;9.172;2023-03-21T11:31:08;3.92;;;2.47;;
7150;SDS011;3617;48.836;9.172;2023-03-21T11:33:39;5.82;;;2.55;;
7150;SDS011;3617;48.836;9.172;2023-03-21T11:38:49;5.90;;;2.58;;
7150;SDS011;3617;48.836;9.172;2023-03-21T11:41:23;4.13;;;2.30;;
7150;SDS011;3617;48.836;9.172;2023-03-21T11:43:50;3.90;;;2.40;;
7150;SDS011;3617;48.836;9.172;2023-03-21T11:46:21;3.70;;;2.20;;
7150;SDS011;3617;48.836;9.172;2023-03-21T11:48:47;2.78;;;2.08;;
7150;SDS011;3617;48.836;9.172;2023-03-21T11:53:44;3.03;;;2.35;;
7150;SDS011;3617;48.836;9.172;2023-03-21T12:01:22;4.38;;;2.58;;
7150;SDS011;3617;48.836;9.172;2023-03-21T12:06:37;4.93;;;2.58;;
7150;SDS011;3617;48.836;9.172;2023-03-21T12:09:13;3.20;;;2.22;;
7150;SDS011;3617;48.836;9.172;2023-03-21T12:12:02;4.10;;;2.58;;
7150;SDS011;3617;48.836;9.172;2023-03-21T12:14:38;3.13;;;2.10;;
7150;SDS011;3617;48.836;9.172;2023-03-21T12:17:11;2.60;;;2.03;;
7150;SDS011;3617;48.836;9.172;2023-03-21T12:19:45;3.30;;;2.17;;
7150;SDS011;3617;48.836;9.172;2023-03-21T12:25:23;2.83;;;2.03;;
7150;SDS011;3617;48.836;9.172;2023-03-21T12:30:24;2.90;;;2.20;;
7150;SDS011;3617;48.836;9.172;2023-03-21T12:33:01;2.40;;;1.70;;
7150;SDS011;3617;48.836;9.172;2023-03-21T12:35:49;4.03;;;1.80;;
7150;SDS011;3617;48.836;9.172;2023-03-21T12:41:14;3.65;;;1.98;;
7150;SDS011;3617;48.836;9.172;2023-03-21T12:43:43;2.63;;;2.00;;
7150;SDS011;3617;48.836;9.172;2023-03-21T12:51:23;2.58;;;1.70;;
7150;SDS011;3617;48.836;9.172;2023-03-21T12:54:08;2.97;;;1.70;;
7150;SDS011;3617;48.836;9.172;2023-03-21T12:56:45;2.35;;;1.70;;
7150;SDS011;3617;48.836;9.172;2023-03-21T12:59:17;3.78;;;1.48;;
7150;SDS011;3617;48.836;9.172;2023-03-21T13:01:45;1.67;;;1.45;;
7150;SDS011;3617;48.836;9.172;2023-03-21T13:06:45;3.22;;;1.67;;
7150;SDS011;3617;48.836;9.172;2023-03-21T13:09:17;2.58;;;1.52;;
7150;SDS011;3617;48.836;9.172;2023-03-21T13:11:46;1.45;;;1.35;;
7150;SDS011;3617;48.836;9.172;2023-03-21T13:14:14;2.25;;;1.40;;
7150;SDS011;3617;48.836;9.172;2023-03-21T13:16:44;2.97;;;1.60;;
7150;SDS011;3617;48.836;9.172;2023-03-21T13:27:00;4.95;;;1.92;;
7150;SDS011;3617;48.836;9.172;2023-03-21T13:29:32;3.35;;;1.50;;
7150;SDS011;3617;48.836;9.172;2023-03-21T13:32:05;2.28;;;1.60;;
7150;SDS011;3617;48.836;9.172;2023-03-21T13:34:32;3.15;;;1.80;;
7150;SDS011;3617;48.836;9.172;2023-03-21T13:36:58;2.40;;;1.40;;
7150;SDS011;3617;48.836;9.172;2023-03-21T13:39:26;3.30;;;1.80;;
7150;SDS011;3617;48.836;9.172;2023-03-21T13:41:53;3.88;;;1.80;;
7150;SDS011;3617;48.836;9.172;2023-03-21T13:44:54;3.55;;;1.85;;
7150;SDS011;3617;48.836;9.172;2023-03-21T13:50:11;4.15;;;1.83;;
7150;SDS011;3617;48.836;9.172;2023-03-21T13:52:39;2.83;;;2.15;;
7150;SDS011;3617;48.836;9.172;2023-03-21T13:55:11;3.13;;;2.00;;
7150;SDS011;3617;48.836;9.172;2023-03-21T13:57:40;3.58;;;2.60;;
7150;SDS011;3617;48.836;9.172;2023-03-21T14:00:39;7.30;;;2.65;;
7150;SDS011;3617;48.836;9.172;2023-03-21T14:03:05;4.57;;;2.30;;
7150;SDS011;3617;48.836;9.172;2023-03-21T14:05:32;3.95;;;2.17;;
7150;SDS011;3617;48.836;9.172;2023-03-21T14:08:03;4.07;;;2.38;;
7150;SDS011;3617;48.836;9.172;2023-03-21T14:10:37;4.97;;;2.47;;
7150;SDS011;3617;48.836;9.172;2023-03-21T14:13:04;4.93;;;2.30;;
7150;SDS011;3617;48.836;9.172;2023-03-21T14:18:00;4.33;;;2.27;;
7150;SDS011;3617;48.836;9.172;2023-03-21T14:20:29;4.67;;;2.73;;
7150;SDS011;3617;48.836;9.172;2023-03-21T14:22:55;3.20;;;2.17;;
7150;SDS011;3617;48.836;9.172;2023-03-21T14:25:22;4.57;;;2.30;;
7150;SDS011;3617;48.836;9.172;2023-03-21T14:27:52;4.77;;;2.50;;
7150;SDS011;3617;48.836;9.172;2023-03-21T14:30:29;4.23;;;2.10;;
7150;SDS011;3617;48.836;9.172;2023-03-21T14:32:57;4.37;;;2.30;;
7150;SDS011;3617;48.836;9.172;2023-03-21T14:35:24;3.50;;;2.00;;
7150;SDS011;3617;48.836;9.172;2023-03-21T14:37:55;4.30;;;2.10;;
7150;SDS011;3617;48.836;9.172;2023-03-21T14:40:24;2.90;;;1.80;;
7150;SDS011;3617;48.836;9.172;2023-03-21T14:42:51;4.57;;;1.57;;
7150;SDS011;3617;48.836;9.172;2023-03-21T14:45:18;2.97;;;1.90;;
7150;SDS011;3617;48.836;9.172;2023-03-21T14:47:58;2.27;;;1.67;;
7150;SDS011;3617;48.836;9.172;2023-03-21T14:50:28;6.13;;;1.83;;
7150;SDS011;3617;48.836;9.172;2023-03-21T14:52:55;3.10;;;1.70;;
7150;SDS011;3617;48.836;9.172;2023-03-21T14:55:22;4.23;;;1.70;;
7150;SDS011;3617;48.836;9.172;2023-03-21T14:57:48;2.97;;;1.67;;
7150;SDS011;3617;48.836;9.172;2023-03-21T15:00:25;2.67;;;1.70;;
7150;SDS011;3617;48.836;9.172;2023-03-21T15:02:52;5.87;;;2.00;;
7150;SDS011;3617;48.836;9.172;2023-03-21T15:05:25;5.37;;;2.00;;
7150;SDS011;3617;48.836;9.172;2023-03-21T15:07:55;2.30;;;1.80;;
7150;SDS011;3617;48.836;9.172;2023-03-21T15:10:22;3.80;;;2.17;;
7150;SDS011;3617;48.836;9.172;2023-03-21T15:12:58;3.10;;;2.10;;
7150;SDS011;3617;48.836;9.172;2023-03-21T15:15:25;5.03;;;2.00;;
7150;SDS011;3617;48.836;9.172;2023-03-21T15:17:52;2.33;;;1.80;;
7150;SDS011;3617;48.836;9.172;2023-03-21T15:20:20;3.10;;;2.00;;
7150;SDS011;3617;48.836;9.172;2023-03-21T15:22:48;2.43;;;1.80;;
7150;SDS011;3617;48.836;9.172;2023-03-21T15:25:17;3.53;;;2.00;;
7150;SDS011;3617;48.836;9.172;2023-03-21T15:27:44;5.07;;;2.20;;
7150;SDS011;3617;48.836;9.172;2023-03-21T15:30:17;4.20;;;2.07;;
7150;SDS011;3617;48.836;9.172;2023-03-21T15:32:44;4.13;;;1.90;;
7150;SDS011;3617;48.836;9.172;2023-03-21T15:35:12;3.20;;;2.17;;
7150;SDS011;3617;48.836;9.172;2023-03-21T15:37:39;4.53;;;2.90;;
7150;SDS011;3617;48.836;9.172;2023-03-21T15:40:17;4.47;;;2.40;;
7150;SDS011;3617;48.836;9.172;2023-03-21T15:42:43;6.30;;;2.00;;
7150;SDS011;3617;48.836;9.172;2023-03-21T15:45:18;4.20;;;2.33;;
7150;SDS011;3617;48.836;9.172;2023-03-21T15:50:23;4.47;;;2.10;;
7150;SDS011;3617;48.836;9.172;2023-03-21T15:52:50;5.27;;;2.53;;
7150;SDS011;3617;48.836;9.172;2023-03-21T15:55:18;4.83;;;2.10;;
7150;SDS011;3617;48.836;9.172;2023-03-21T15:57:49;3.77;;;2.47;;
7150;SDS011;3617;48.836;9.172;2023-03-21T16:02:43;2.90;;;1.90;;
7150;SDS011;3617;48.836;9.172;2023-03-21T16:07:48;5.80;;;2.30;;
7150;SDS011;3617;48.836;9.172;2023-03-21T16:10:25;3.50;;;2.53;;
7150;SDS011;3617;48.836;9.172;2023-03-21T16:12:52;5.40;;;2.37;;
7150;SDS011;3617;48.836;9.172;2023-03-21T16:15:18;5.67;;;2.47;;
7150;SDS011;3617;48.836;9.172;2023-03-21T16:17:47;5.57;;;2.57;;
7150;SDS011;3617;48.836;9.172;2023-03-21T16:20:23;3.33;;;2.10;;
7150;SDS011;3617;48.836;9.172;2023-03-21T16:22:49;5.60;;;2.40;;
7150;SDS011;3617;48.836;9.172;2023-03-21T16:25:15;4.53;;;2.40;;
7150;SDS011;3617;48.836;9.172;2023-03-21T16:27:42;3.33;;;2.30;;
7150;SDS011;3617;48.836;9.172;2023-03-21T16:30:10;5.33;;;2.37;;
7150;SDS011;3617;48.836;9.172;2023-03-21T16:32:36;4.10;;;2.60;;
7150;SDS011;3617;48.836;9.172;2023-03-21T16:35:03;4.60;;;3.37;;
7150;SDS011;3617;48.836;9.172;2023-03-21T16:37:29;4.57;;;2.10;;
7150;SDS011;3617;48.836;9.172;2023-03-21T16:39:55;3.13;;;2.20;;
7150;SDS011;3617;48.836;9.172;2023-03-21T16:42:21;2.80;;;2.33;;
7150;SDS011;3617;48.836;9.172;2023-03-21T16:44:47;6.67;;;2.53;;
7150;SDS011;3617;48.836;9.172;2023-03-21T16:47:14;3.80;;;2.07;;
7150;SDS011;3617;48.836;9.172;2023-03-21T16:49:41;5.00;;;2.77;;
7150;SDS011;3617;48.836;9.172;2023-03-21T16:52:08;6.17;;;2.57;;
7150;SDS011;3617;48.836;9.172;2023-03-21T16:54:35;3.87;;;2.50;;
7150;SDS011;3617;48.836;9.172;2023-03-21T16:57:01;4.13;;;2.30;;
7150;SDS011;3617;48.836;9.172;2023-03-21T16:59:28;3.83;;;2.30;;
7150;SDS011;3617;48.836;9.172;2023-03-21T17:01:55;3.43;;;2.20;;
7150;SDS011;3617;48.836;9.172;2023-03-21T17:04:21;4.40;;;2.30;;